sensor_id;sensor_type;location;lat;lon;timestamp;P1;durP1;ratioP1;P2;durP2;ratioP2
7334;SDS011;3708;42.632;23.378;2022-09-29T00:01:45;6.13;;;2.60;;
7334;SDS011;3708;42.632;23.378;2022-09-29T00:04:12;6.00;;;2.60;;
7334;SDS011;3708;42.632;23.378;2022-09-29T00:06:39;9.37;;;2.63;;
7334;SDS011;3708;42.632;23.378;2022-09-29T00:09:08;7.20;;;2.83;;
7334;SDS011;3708;42.632;23.378;2022-09-29T00:11:35;4.70;;;2.47;;
7334;SDS011;3708;42.632;23.378;2022-09-29T00:14:01;6.70;;;2.57;;
7334;SDS011;3708;42.632;23.378;2022-09-29T00:16:28;8.43;;;2.67;;
7334;SDS011;3708;42.632;23.378;2022-09-29T00:18:55;5.20;;;2.63;;
7334;SDS011;3708;42.632;23.378;2022-09-29T00:21:22;5.13;;;3.20;;
7334;SDS011;3708;42.632;23.378;2022-09-29T00:23:49;5.87;;;2.63;;
7334;SDS011;3708;42.632;23.378;2022-09-29T00:26:18;6.63;;;2.80;;
7334;SDS011;3708;42.632;23.378;2022-09-29T00:28:47;6.27;;;2.80;;
7334;SDS011;3708;42.632;23.378;2022-09-29T00:31:16;5.13;;;2.57;;
7334;SDS011;3708;42.632;23.378;2022-09-29T00:33:44;7.40;;;3.37;;
7334;SDS011;3708;42.632;23.378;2022-09-29T00:36:12;6.27;;;2.87;;
7334;SDS011;3708;42.632;23.378;2022-09-29T00:38:40;5.63;;;2.70;;
7334;SDS011;3708;42.632;23.378;2022-09-29T00:41:11;4.73;;;3.07;;
7334;SDS011;3708;42.632;23.378;2022-09-29T00:43:53;10.27;;;3.10;;
7334;SDS011;3708;42.632;23.378;2022-09-29T00:46:28;10.03;;;3.27;;
7334;SDS011;3708;42.632;23.378;2022-09-29T00:49:00;8.90;;;3.93;;
7334;SDS011;3708;42.632;23.378;2022-09-29T00:51:31;9.73;;;3.70;;
7334;SDS011;3708;42.632;23.378;2022-09-29T00:54:01;5.43;;;2.83;;
7334;SDS011;3708;42.632;23.378;2022-09-29T00:56:30;4.53;;;2.90;;
7334;SDS011;3708;42.632;23.378;2022-09-29T00:59:00;6.53;;;2.60;;
7334;SDS011;3708;42.632;23.378;2022-09-29T01:01:30;6.40;;;3.17;;
7334;SDS011;3708;42.632;23.378;2022-09-29T01:03:58;4.03;;;2.77;;
7334;SDS011;3708;42.632;23.378;2022-09-29T01:06:30;4.87;;;2.63;;
7334;SDS011;3708;42.632;23.378;2022-09-29T01:09:02;7.73;;;2.83;;
7334;SDS011;3708;42.632;23.378;2022-09-29T01:11:32;4.17;;;2.80;;
7334;SDS011;3708;42.632;23.378;2022-09-29T01:14:01;3.67;;;2.43;;
7334;SDS011;3708;42.632;23.378;2022-09-29T01:16:31;4.33;;;2.60;;
7334;SDS011;3708;42.632;23.378;2022-09-29T01:18:59;3.53;;;2.47;;
7334;SDS011;3708;42.632;23.378;2022-09-29T01:21:30;5.00;;;2.43;;
7334;SDS011;3708;42.632;23.378;2022-09-29T01:27:12;6.33;;;2.40;;
7334;SDS011;3708;42.632;23.378;2022-09-29T01:30:06;3.53;;;2.50;;
7334;SDS011;3708;42.632;23.378;2022-09-29T01:32:42;3.77;;;2.27;;
7334;SDS011;3708;42.632;23.378;2022-09-29T01:35:33;4.00;;;2.80;;
7334;SDS011;3708;42.632;23.378;2022-09-29T01:38:13;7.47;;;2.70;;
7334;SDS011;3708;42.632;23.378;2022-09-29T01:40:47;4.70;;;2.30;;
7334;SDS011;3708;42.632;23.378;2022-09-29T01:43:19;5.10;;;2.20;;
7334;SDS011;3708;42.632;23.378;2022-09-29T01:45:52;4.77;;;2.77;;
7334;SDS011;3708;42.632;23.378;2022-09-29T01:48:28;6.37;;;3.50;;
7334;SDS011;3708;42.632;23.378;2022-09-29T01:51:00;4.47;;;2.50;;
7334;SDS011;3708;42.632;23.378;2022-09-29T01:53:32;4.93;;;3.20;;
7334;SDS011;3708;42.632;23.378;2022-09-29T01:56:04;7.07;;;2.67;;
7334;SDS011;3708;42.632;23.378;2022-09-29T01:58:38;6.70;;;3.07;;
7334;SDS011;3708;42.632;23.378;2022-09-29T02:01:11;10.63;;;3.57;;
7334;SDS011;3708;42.632;23.378;2022-09-29T02:03:45;3.67;;;2.40;;
7334;SDS011;3708;42.632;23.378;2022-09-29T02:06:17;6.10;;;2.83;;
7334;SDS011;3708;42.632;23.378;2022-09-29T02:08:47;5.37;;;2.70;;
7334;SDS011;3708;42.632;23.378;2022-09-29T02:11:18;3.73;;;2.80;;
7334;SDS011;3708;42.632;23.378;2022-09-29T02:13:46;9.27;;;2.83;;
7334;SDS011;3708;42.632;23.378;2022-09-29T02:16:16;7.43;;;2.53;;
7334;SDS011;3708;42.632;23.378;2022-09-29T02:18:49;6.33;;;2.80;;
7334;SDS011;3708;42.632;23.378;2022-09-29T02:21:20;4.93;;;2.83;;
7334;SDS011;3708;42.632;23.378;2022-09-29T02:23:48;5.70;;;2.63;;
7334;SDS011;3708;42.632;23.378;2022-09-29T02:26:15;4.40;;;2.47;;
7334;SDS011;3708;42.632;23.378;2022-09-29T02:28:44;5.47;;;2.97;;
7334;SDS011;3708;42.632;23.378;2022-09-29T02:31:11;5.03;;;2.97;;
7334;SDS011;3708;42.632;23.378;2022-09-29T02:33:39;6.90;;;2.80;;
7334;SDS011;3708;42.632;23.378;2022-09-29T02:36:15;3.50;;;2.70;;
7334;SDS011;3708;42.632;23.378;2022-09-29T02:38:48;5.67;;;3.27;;
7334;SDS011;3708;42.632;23.378;2022-09-29T02:41:27;5.67;;;2.50;;
7334;SDS011;3708;42.632;23.378;2022-09-29T02:44:15;5.77;;;3.07;;
7334;SDS011;3708;42.632;23.378;2022-09-29T02:46:58;4.43;;;2.27;;
7334;SDS011;3708;42.632;23.378;2022-09-29T02:49:53;5.93;;;2.60;;
7334;SDS011;3708;42.632;23.378;2022-09-29T02:52:42;6.13;;;2.33;;
7334;SDS011;3708;42.632;23.378;2022-09-29T02:55:16;3.37;;;2.10;;
7334;SDS011;3708;42.632;23.378;2022-09-29T02:57:47;3.50;;;2.37;;
7334;SDS011;3708;42.632;23.378;2022-09-29T03:00:17;3.30;;;2.50;;
7334;SDS011;3708;42.632;23.378;2022-09-29T03:02:45;3.93;;;3.37;;
7334;SDS011;3708;42.632;23.378;2022-09-29T03:05:13;9.03;;;3.07;;
7334;SDS011;3708;42.632;23.378;2022-09-29T03:07:43;5.80;;;3.20;;
7334;SDS011;3708;42.632;23.378;2022-09-29T03:10:23;3.93;;;2.60;;
7334;SDS011;3708;42.632;23.378;2022-09-29T03:12:54;8.27;;;3.70;;
7334;SDS011;3708;42.632;23.378;2022-09-29T03:15:21;9.37;;;2.70;;
7334;SDS011;3708;42.632;23.378;2022-09-29T03:17:53;6.13;;;3.07;;
7334;SDS011;3708;42.632;23.378;2022-09-29T03:20:33;4.33;;;2.40;;
7334;SDS011;3708;42.632;23.378;2022-09-29T03:23:01;5.43;;;2.67;;
7334;SDS011;3708;42.632;23.378;2022-09-29T03:25:28;6.80;;;2.90;;
7334;SDS011;3708;42.632;23.378;2022-09-29T03:27:55;5.83;;;2.80;;
7334;SDS011;3708;42.632;23.378;2022-09-29T03:30:22;7.83;;;2.83;;
7334;SDS011;3708;42.632;23.378;2022-09-29T03:32:49;6.97;;;3.03;;
7334;SDS011;3708;42.632;23.378;2022-09-29T03:35:16;3.20;;;2.50;;
7334;SDS011;3708;42.632;23.378;2022-09-29T03:37:43;6.37;;;3.53;;
7334;SDS011;3708;42.632;23.378;2022-09-29T03:40:11;7.33;;;2.87;;
7334;SDS011;3708;42.632;23.378;2022-09-29T03:42:39;5.60;;;2.87;;
7334;SDS011;3708;42.632;23.378;2022-09-29T03:45:06;4.67;;;2.50;;
7334;SDS011;3708;42.632;23.378;2022-09-29T03:47:33;4.10;;;3.03;;
7334;SDS011;3708;42.632;23.378;2022-09-29T03:50:00;6.93;;;2.97;;
7334;SDS011;3708;42.632;23.378;2022-09-29T03:52:27;17.90;;;3.37;;
7334;SDS011;3708;42.632;23.378;2022-09-29T03:54:54;4.67;;;2.97;;
7334;SDS011;3708;42.632;23.378;2022-09-29T03:57:23;7.10;;;3.23;;
7334;SDS011;3708;42.632;23.378;2022-09-29T03:59:49;7.27;;;3.07;;
7334;SDS011;3708;42.632;23.378;2022-09-29T04:02:17;7.07;;;3.40;;
7334;SDS011;3708;42.632;23.378;2022-09-29T04:04:45;6.13;;;2.97;;
7334;SDS011;3708;42.632;23.378;2022-09-29T04:07:12;8.53;;;3.80;;
7334;SDS011;3708;42.632;23.378;2022-09-29T04:09:39;8.17;;;3.47;;
7334;SDS011;3708;42.632;23.378;2022-09-29T04:12:06;9.97;;;4.50;;
7334;SDS011;3708;42.632;23.378;2022-09-29T04:14:34;8.37;;;3.73;;
7334;SDS011;3708;42.632;23.378;2022-09-29T04:17:01;8.87;;;3.60;;
7334;SDS011;3708;42.632;23.378;2022-09-29T04:19:28;6.33;;;3.80;;
7334;SDS011;3708;42.632;23.378;2022-09-29T04:21:55;9.03;;;4.13;;
7334;SDS011;3708;42.632;23.378;2022-09-29T04:24:22;5.43;;;3.57;;
7334;SDS011;3708;42.632;23.378;2022-09-29T04:26:49;8.50;;;4.80;;
7334;SDS011;3708;42.632;23.378;2022-09-29T04:29:16;6.03;;;3.87;;
7334;SDS011;3708;42.632;23.378;2022-09-29T04:31:45;11.77;;;4.03;;
7334;SDS011;3708;42.632;23.378;2022-09-29T04:34:11;6.90;;;3.97;;
7334;SDS011;3708;42.632;23.378;2022-09-29T04:36:38;7.63;;;3.90;;
7334;SDS011;3708;42.632;23.378;2022-09-29T04:39:19;6.63;;;4.30;;
7334;SDS011;3708;42.632;23.378;2022-09-29T04:41:59;10.67;;;3.23;;
7334;SDS011;3708;42.632;23.378;2022-09-29T04:44:26;8.43;;;4.13;;
7334;SDS011;3708;42.632;23.378;2022-09-29T04:46:54;6.23;;;4.43;;
7334;SDS011;3708;42.632;23.378;2022-09-29T04:49:21;9.57;;;4.83;;
7334;SDS011;3708;42.632;23.378;2022-09-29T04:51:48;10.07;;;4.27;;
7334;SDS011;3708;42.632;23.378;2022-09-29T04:54:15;14.73;;;4.87;;
7334;SDS011;3708;42.632;23.378;2022-09-29T04:56:42;11.47;;;4.30;;
7334;SDS011;3708;42.632;23.378;2022-09-29T04:59:10;8.80;;;4.40;;
7334;SDS011;3708;42.632;23.378;2022-09-29T05:01:37;10.17;;;4.13;;
7334;SDS011;3708;42.632;23.378;2022-09-29T05:04:05;12.17;;;4.20;;
7334;SDS011;3708;42.632;23.378;2022-09-29T05:06:33;10.50;;;4.53;;
7334;SDS011;3708;42.632;23.378;2022-09-29T05:09:03;7.50;;;4.17;;
7334;SDS011;3708;42.632;23.378;2022-09-29T05:11:30;9.97;;;3.57;;
7334;SDS011;3708;42.632;23.378;2022-09-29T05:13:57;12.07;;;4.43;;
7334;SDS011;3708;42.632;23.378;2022-09-29T05:16:24;7.60;;;3.50;;
7334;SDS011;3708;42.632;23.378;2022-09-29T05:19:01;6.77;;;3.23;;
7334;SDS011;3708;42.632;23.378;2022-09-29T05:21:41;8.10;;;4.30;;
7334;SDS011;3708;42.632;23.378;2022-09-29T05:24:47;9.53;;;4.23;;
7334;SDS011;3708;42.632;23.378;2022-09-29T05:27:31;10.27;;;3.47;;
7334;SDS011;3708;42.632;23.378;2022-09-29T05:34:06;12.73;;;4.73;;
7334;SDS011;3708;42.632;23.378;2022-09-29T05:37:25;10.50;;;4.00;;
7334;SDS011;3708;42.632;23.378;2022-09-29T05:39:56;9.17;;;3.43;;
7334;SDS011;3708;42.632;23.378;2022-09-29T05:42:29;9.90;;;3.70;;
7334;SDS011;3708;42.632;23.378;2022-09-29T05:45:01;9.50;;;3.40;;
7334;SDS011;3708;42.632;23.378;2022-09-29T05:47:40;5.80;;;3.40;;
7334;SDS011;3708;42.632;23.378;2022-09-29T05:50:43;5.53;;;2.97;;
7334;SDS011;3708;42.632;23.378;2022-09-29T05:54:13;4.63;;;2.83;;
7334;SDS011;3708;42.632;23.378;2022-09-29T05:57:04;9.03;;;3.30;;
7334;SDS011;3708;42.632;23.378;2022-09-29T05:59:39;9.07;;;3.23;;
7334;SDS011;3708;42.632;23.378;2022-09-29T06:02:59;9.40;;;2.60;;
7334;SDS011;3708;42.632;23.378;2022-09-29T06:06:48;9.37;;;2.50;;
7334;SDS011;3708;42.632;23.378;2022-09-29T06:10:05;7.67;;;3.27;;
7334;SDS011;3708;42.632;23.378;2022-09-29T06:13:23;8.40;;;3.23;;
7334;SDS011;3708;42.632;23.378;2022-09-29T06:15:50;7.70;;;2.87;;
7334;SDS011;3708;42.632;23.378;2022-09-29T06:18:26;9.90;;;3.10;;
7334;SDS011;3708;42.632;23.378;2022-09-29T06:20:58;5.37;;;2.73;;
7334;SDS011;3708;42.632;23.378;2022-09-29T06:23:26;10.23;;;3.00;;
7334;SDS011;3708;42.632;23.378;2022-09-29T06:25:56;11.23;;;3.40;;
7334;SDS011;3708;42.632;23.378;2022-09-29T06:28:28;8.27;;;2.90;;
7334;SDS011;3708;42.632;23.378;2022-09-29T06:31:01;7.57;;;3.00;;
7334;SDS011;3708;42.632;23.378;2022-09-29T06:33:54;5.83;;;3.20;;
7334;SDS011;3708;42.632;23.378;2022-09-29T06:36:43;8.73;;;2.63;;
7334;SDS011;3708;42.632;23.378;2022-09-29T06:39:28;7.63;;;2.90;;
7334;SDS011;3708;42.632;23.378;2022-09-29T06:41:57;7.43;;;3.70;;
7334;SDS011;3708;42.632;23.378;2022-09-29T06:44:35;6.10;;;2.50;;
7334;SDS011;3708;42.632;23.378;2022-09-29T06:47:02;8.20;;;2.60;;
7334;SDS011;3708;42.632;23.378;2022-09-29T06:49:29;4.07;;;2.60;;
7334;SDS011;3708;42.632;23.378;2022-09-29T06:51:57;8.53;;;3.07;;
7334;SDS011;3708;42.632;23.378;2022-09-29T06:54:24;10.00;;;2.60;;
7334;SDS011;3708;42.632;23.378;2022-09-29T06:56:52;6.17;;;2.63;;
7334;SDS011;3708;42.632;23.378;2022-09-29T06:59:24;13.33;;;3.17;;
7334;SDS011;3708;42.632;23.378;2022-09-29T07:02:00;5.97;;;2.90;;
7334;SDS011;3708;42.632;23.378;2022-09-29T07:05:09;5.47;;;2.67;;
7334;SDS011;3708;42.632;23.378;2022-09-29T07:07:38;8.97;;;3.33;;
7334;SDS011;3708;42.632;23.378;2022-09-29T07:10:08;10.43;;;3.37;;
7334;SDS011;3708;42.632;23.378;2022-09-29T07:12:38;7.50;;;3.50;;
7334;SDS011;3708;42.632;23.378;2022-09-29T07:15:08;5.23;;;3.10;;
7334;SDS011;3708;42.632;23.378;2022-09-29T07:17:35;6.27;;;3.60;;
7334;SDS011;3708;42.632;23.378;2022-09-29T07:20:02;7.33;;;3.60;;
7334;SDS011;3708;42.632;23.378;2022-09-29T07:22:29;7.87;;;3.53;;
7334;SDS011;3708;42.632;23.378;2022-09-29T07:24:56;7.60;;;3.27;;
7334;SDS011;3708;42.632;23.378;2022-09-29T07:27:23;10.03;;;3.37;;
7334;SDS011;3708;42.632;23.378;2022-09-29T07:29:50;7.13;;;3.17;;
7334;SDS011;3708;42.632;23.378;2022-09-29T07:32:18;9.87;;;3.00;;
7334;SDS011;3708;42.632;23.378;2022-09-29T07:34:45;8.27;;;2.80;;
7334;SDS011;3708;42.632;23.378;2022-09-29T07:37:12;6.33;;;2.57;;
7334;SDS011;3708;42.632;23.378;2022-09-29T07:39:39;7.20;;;3.03;;
7334;SDS011;3708;42.632;23.378;2022-09-29T07:42:06;8.47;;;3.20;;
7334;SDS011;3708;42.632;23.378;2022-09-29T07:44:33;10.60;;;3.10;;
7334;SDS011;3708;42.632;23.378;2022-09-29T07:47:00;13.33;;;2.93;;
7334;SDS011;3708;42.632;23.378;2022-09-29T07:49:28;9.43;;;2.97;;
7334;SDS011;3708;42.632;23.378;2022-09-29T07:51:55;7.97;;;3.67;;
7334;SDS011;3708;42.632;23.378;2022-09-29T07:54:22;8.03;;;3.03;;
7334;SDS011;3708;42.632;23.378;2022-09-29T07:56:49;8.90;;;3.47;;
7334;SDS011;3708;42.632;23.378;2022-09-29T07:59:16;10.10;;;3.83;;
7334;SDS011;3708;42.632;23.378;2022-09-29T08:01:43;16.63;;;3.97;;
7334;SDS011;3708;42.632;23.378;2022-09-29T08:04:10;8.90;;;3.17;;
7334;SDS011;3708;42.632;23.378;2022-09-29T08:06:41;5.40;;;2.90;;
7334;SDS011;3708;42.632;23.378;2022-09-29T08:09:08;6.57;;;2.67;;
7334;SDS011;3708;42.632;23.378;2022-09-29T08:11:37;9.03;;;2.43;;
7334;SDS011;3708;42.632;23.378;2022-09-29T08:14:05;12.67;;;2.93;;
7334;SDS011;3708;42.632;23.378;2022-09-29T08:16:32;5.23;;;2.57;;
7334;SDS011;3708;42.632;23.378;2022-09-29T08:19:02;7.17;;;2.40;;
7334;SDS011;3708;42.632;23.378;2022-09-29T08:21:30;4.77;;;2.90;;
7334;SDS011;3708;42.632;23.378;2022-09-29T08:24:03;8.00;;;2.80;;
7334;SDS011;3708;42.632;23.378;2022-09-29T08:26:31;5.85;;;2.75;;
7334;SDS011;3708;42.632;23.378;2022-09-29T08:29:00;6.70;;;3.30;;
7334;SDS011;3708;42.632;23.378;2022-09-29T08:31:27;8.90;;;3.15;;
7334;SDS011;3708;42.632;23.378;2022-09-29T08:33:55;4.20;;;2.70;;
7334;SDS011;3708;42.632;23.378;2022-09-29T08:36:27;8.02;;;2.88;;
7334;SDS011;3708;42.632;23.378;2022-09-29T08:38:55;3.38;;;2.47;;
7334;SDS011;3708;42.632;23.378;2022-09-29T08:41:31;8.50;;;3.80;;
7334;SDS011;3708;42.632;23.378;2022-09-29T08:44:10;9.00;;;2.83;;
7334;SDS011;3708;42.632;23.378;2022-09-29T08:46:43;12.10;;;2.97;;
7334;SDS011;3708;42.632;23.378;2022-09-29T08:49:15;5.53;;;2.90;;
7334;SDS011;3708;42.632;23.378;2022-09-29T08:51:47;10.97;;;2.77;;
7334;SDS011;3708;42.632;23.378;2022-09-29T08:54:23;7.17;;;3.27;;
7334;SDS011;3708;42.632;23.378;2022-09-29T08:56:56;7.97;;;3.23;;
7334;SDS011;3708;42.632;23.378;2022-09-29T08:59:24;8.73;;;2.70;;
7334;SDS011;3708;42.632;23.378;2022-09-29T09:01:58;6.20;;;3.40;;
7334;SDS011;3708;42.632;23.378;2022-09-29T09:07:26;8.80;;;3.80;;
7334;SDS011;3708;42.632;23.378;2022-09-29T09:10:12;7.82;;;2.60;;
7334;SDS011;3708;42.632;23.378;2022-09-29T09:13:04;6.77;;;3.10;;
7334;SDS011;3708;42.632;23.378;2022-09-29T09:15:49;9.40;;;3.00;;
7334;SDS011;3708;42.632;23.378;2022-09-29T09:21:22;7.03;;;2.97;;
7334;SDS011;3708;42.632;23.378;2022-09-29T09:23:55;5.03;;;2.45;;
7334;SDS011;3708;42.632;23.378;2022-09-29T09:26:25;5.78;;;3.15;;
7334;SDS011;3708;42.632;23.378;2022-09-29T09:29:03;8.93;;;3.30;;
7334;SDS011;3708;42.632;23.378;2022-09-29T09:31:39;4.80;;;2.80;;
7334;SDS011;3708;42.632;23.378;2022-09-29T09:34:11;8.93;;;2.77;;
7334;SDS011;3708;42.632;23.378;2022-09-29T09:36:44;4.55;;;2.95;;
7334;SDS011;3708;42.632;23.378;2022-09-29T09:39:15;7.68;;;2.88;;
7334;SDS011;3708;42.632;23.378;2022-09-29T09:41:50;5.22;;;2.55;;
7334;SDS011;3708;42.632;23.378;2022-09-29T09:44:23;8.13;;;2.72;;
7334;SDS011;3708;42.632;23.378;2022-09-29T09:46:54;10.07;;;2.55;;
7334;SDS011;3708;42.632;23.378;2022-09-29T09:49:25;10.43;;;2.78;;
7334;SDS011;3708;42.632;23.378;2022-09-29T09:51:58;7.13;;;2.40;;
7334;SDS011;3708;42.632;23.378;2022-09-29T09:54:29;8.82;;;2.58;;
7334;SDS011;3708;42.632;23.378;2022-09-29T09:57:09;4.90;;;1.98;;
7334;SDS011;3708;42.632;23.378;2022-09-29T10:00:03;12.50;;;2.70;;
7334;SDS011;3708;42.632;23.378;2022-09-29T10:02:36;4.93;;;2.20;;
7334;SDS011;3708;42.632;23.378;2022-09-29T10:05:09;7.80;;;1.95;;
7334;SDS011;3708;42.632;23.378;2022-09-29T10:07:37;6.03;;;1.98;;
7334;SDS011;3708;42.632;23.378;2022-09-29T10:10:12;4.47;;;2.20;;
7334;SDS011;3708;42.632;23.378;2022-09-29T10:12:46;5.78;;;2.20;;
7334;SDS011;3708;42.632;23.378;2022-09-29T10:15:26;5.57;;;2.30;;
7334;SDS011;3708;42.632;23.378;2022-09-29T10:18:06;5.80;;;2.53;;
7334;SDS011;3708;42.632;23.378;2022-09-29T10:21:09;4.97;;;2.08;;
7334;SDS011;3708;42.632;23.378;2022-09-29T10:23:29;4.35;;;1.80;;
7334;SDS011;3708;42.632;23.378;2022-09-29T10:26:26;6.53;;;2.10;;
7334;SDS011;3708;42.632;23.378;2022-09-29T10:29:17;3.55;;;1.90;;
7334;SDS011;3708;42.632;23.378;2022-09-29T10:32:00;4.85;;;1.90;;
7334;SDS011;3708;42.632;23.378;2022-09-29T10:34:35;3.63;;;1.85;;
7334;SDS011;3708;42.632;23.378;2022-09-29T10:37:17;5.80;;;2.28;;
7334;SDS011;3708;42.632;23.378;2022-09-29T10:40:21;3.53;;;2.05;;
7334;SDS011;3708;42.632;23.378;2022-09-29T10:46:47;4.03;;;2.22;;
7334;SDS011;3708;42.632;23.378;2022-09-29T10:49:25;6.95;;;1.95;;
7334;SDS011;3708;42.632;23.378;2022-09-29T10:52:02;5.75;;;2.28;;
7334;SDS011;3708;42.632;23.378;2022-09-29T10:55:13;12.65;;;2.70;;
7334;SDS011;3708;42.632;23.378;2022-09-29T10:58:00;6.70;;;2.05;;
7334;SDS011;3708;42.632;23.378;2022-09-29T11:01:15;4.45;;;2.20;;
7334;SDS011;3708;42.632;23.378;2022-09-29T11:05:36;11.02;;;3.30;;
7334;SDS011;3708;42.632;23.378;2022-09-29T11:07:07;5.47;;;2.58;;
7334;SDS011;3708;42.632;23.378;2022-09-29T11:09:43;9.68;;;2.30;;
7334;SDS011;3708;42.632;23.378;2022-09-29T11:12:25;5.82;;;2.42;;
7334;SDS011;3708;42.632;23.378;2022-09-29T11:15:23;5.13;;;2.67;;
7334;SDS011;3708;42.632;23.378;2022-09-29T11:18:04;4.28;;;2.40;;
7334;SDS011;3708;42.632;23.378;2022-09-29T11:20:56;7.40;;;2.55;;
7334;SDS011;3708;42.632;23.378;2022-09-29T11:23:36;7.25;;;3.67;;
7334;SDS011;3708;42.632;23.378;2022-09-29T11:26:12;7.85;;;2.97;;
7334;SDS011;3708;42.632;23.378;2022-09-29T11:32:07;3.35;;;2.00;;
7334;SDS011;3708;42.632;23.378;2022-09-29T11:37:54;4.93;;;2.45;;
7334;SDS011;3708;42.632;23.378;2022-09-29T11:40:32;4.20;;;2.63;;
7334;SDS011;3708;42.632;23.378;2022-09-29T11:43:18;8.23;;;2.45;;
7334;SDS011;3708;42.632;23.378;2022-09-29T11:45:58;7.57;;;2.58;;
7334;SDS011;3708;42.632;23.378;2022-09-29T11:48:46;5.13;;;2.13;;
7334;SDS011;3708;42.632;23.378;2022-09-29T11:51:29;6.57;;;2.65;;
7334;SDS011;3708;42.632;23.378;2022-09-29T11:54:18;3.47;;;2.08;;
7334;SDS011;3708;42.632;23.378;2022-09-29T11:56:59;4.88;;;3.03;;
7334;SDS011;3708;42.632;23.378;2022-09-29T11:59:38;3.28;;;2.00;;
7334;SDS011;3708;42.632;23.378;2022-09-29T12:02:50;2.75;;;1.50;;
7334;SDS011;3708;42.632;23.378;2022-09-29T12:05:37;3.25;;;1.70;;
7334;SDS011;3708;42.632;23.378;2022-09-29T12:08:18;2.70;;;1.40;;
7334;SDS011;3708;42.632;23.378;2022-09-29T12:10:57;3.20;;;1.50;;
7334;SDS011;3708;42.632;23.378;2022-09-29T12:13:34;1.30;;;1.20;;
7334;SDS011;3708;42.632;23.378;2022-09-29T12:16:10;1.80;;;1.50;;
7334;SDS011;3708;42.632;23.378;2022-09-29T12:18:41;1.98;;;1.48;;
7334;SDS011;3708;42.632;23.378;2022-09-29T12:21:14;1.95;;;1.52;;
7334;SDS011;3708;42.632;23.378;2022-09-29T12:23:48;2.80;;;1.83;;
7334;SDS011;3708;42.632;23.378;2022-09-29T12:26:21;4.30;;;1.67;;
7334;SDS011;3708;42.632;23.378;2022-09-29T12:28:52;3.15;;;1.50;;
7334;SDS011;3708;42.632;23.378;2022-09-29T12:31:26;1.90;;;1.30;;
7334;SDS011;3708;42.632;23.378;2022-09-29T12:33:57;2.05;;;1.63;;
7334;SDS011;3708;42.632;23.378;2022-09-29T12:36:32;1.83;;;1.33;;
7334;SDS011;3708;42.632;23.378;2022-09-29T12:39:25;1.50;;;1.20;;
7334;SDS011;3708;42.632;23.378;2022-09-29T12:42:06;4.20;;;1.75;;
7334;SDS011;3708;42.632;23.378;2022-09-29T12:44:45;3.00;;;1.50;;
7334;SDS011;3708;42.632;23.378;2022-09-29T12:47:19;5.18;;;1.60;;
7334;SDS011;3708;42.632;23.378;2022-09-29T12:49:57;2.92;;;1.40;;
7334;SDS011;3708;42.632;23.378;2022-09-29T12:52:31;3.53;;;1.80;;
7334;SDS011;3708;42.632;23.378;2022-09-29T12:55:12;1.60;;;1.38;;
7334;SDS011;3708;42.632;23.378;2022-09-29T12:57:53;2.28;;;1.45;;
7334;SDS011;3708;42.632;23.378;2022-09-29T13:00:32;2.33;;;1.50;;
7334;SDS011;3708;42.632;23.378;2022-09-29T13:03:21;4.03;;;1.30;;
7334;SDS011;3708;42.632;23.378;2022-09-29T13:06:13;3.58;;;1.40;;
7334;SDS011;3708;42.632;23.378;2022-09-29T13:09:12;3.72;;;1.65;;
7334;SDS011;3708;42.632;23.378;2022-09-29T13:11:55;3.65;;;1.25;;
7334;SDS011;3708;42.632;23.378;2022-09-29T13:14:41;1.58;;;1.30;;
7334;SDS011;3708;42.632;23.378;2022-09-29T13:17:33;4.50;;;1.50;;
7334;SDS011;3708;42.632;23.378;2022-09-29T13:20:23;3.00;;;1.48;;
7334;SDS011;3708;42.632;23.378;2022-09-29T13:23:20;3.83;;;1.50;;
7334;SDS011;3708;42.632;23.378;2022-09-29T13:26:04;2.50;;;1.30;;
7334;SDS011;3708;42.632;23.378;2022-09-29T13:28:44;1.63;;;1.20;;
7334;SDS011;3708;42.632;23.378;2022-09-29T13:31:20;2.80;;;1.63;;
7334;SDS011;3708;42.632;23.378;2022-09-29T13:33:52;2.05;;;1.45;;
7334;SDS011;3708;42.632;23.378;2022-09-29T13:36:21;4.95;;;1.73;;
7334;SDS011;3708;42.632;23.378;2022-09-29T13:38:52;3.75;;;1.50;;
7334;SDS011;3708;42.632;23.378;2022-09-29T13:41:32;4.68;;;1.42;;
7334;SDS011;3708;42.632;23.378;2022-09-29T13:44:05;3.65;;;1.65;;
7334;SDS011;3708;42.632;23.378;2022-09-29T13:46:51;14.18;;;2.13;;
7334;SDS011;3708;42.632;23.378;2022-09-29T13:49:23;2.20;;;1.60;;
7334;SDS011;3708;42.632;23.378;2022-09-29T13:51:54;4.90;;;1.95;;
7334;SDS011;3708;42.632;23.378;2022-09-29T13:54:28;3.33;;;2.10;;
7334;SDS011;3708;42.632;23.378;2022-09-29T14:05:52;2.65;;;1.60;;
7334;SDS011;3708;42.632;23.378;2022-09-29T14:08:24;3.72;;;2.00;;
7334;SDS011;3708;42.632;23.378;2022-09-29T14:11:05;4.35;;;1.75;;
7334;SDS011;3708;42.632;23.378;2022-09-29T14:13:40;4.68;;;1.85;;
7334;SDS011;3708;42.632;23.378;2022-09-29T14:19:26;6.13;;;1.80;;
7334;SDS011;3708;42.632;23.378;2022-09-29T14:22:01;3.08;;;1.83;;
7334;SDS011;3708;42.632;23.378;2022-09-29T14:24:44;3.60;;;1.95;;
7334;SDS011;3708;42.632;23.378;2022-09-29T14:27:18;6.13;;;2.53;;
7334;SDS011;3708;42.632;23.378;2022-09-29T14:32:47;2.20;;;2.00;;
7334;SDS011;3708;42.632;23.378;2022-09-29T14:35:22;4.67;;;2.43;;
7334;SDS011;3708;42.632;23.378;2022-09-29T14:37:56;3.90;;;2.57;;
7334;SDS011;3708;42.632;23.378;2022-09-29T14:40:27;4.13;;;2.30;;
7334;SDS011;3708;42.632;23.378;2022-09-29T14:43:04;3.57;;;2.50;;
7334;SDS011;3708;42.632;23.378;2022-09-29T14:45:47;5.90;;;3.10;;
7334;SDS011;3708;42.632;23.378;2022-09-29T14:48:53;3.67;;;2.53;;
7334;SDS011;3708;42.632;23.378;2022-09-29T14:51:49;2.97;;;2.73;;
7334;SDS011;3708;42.632;23.378;2022-09-29T14:54:25;3.13;;;2.67;;
7334;SDS011;3708;42.632;23.378;2022-09-29T14:57:10;2.80;;;2.20;;
7334;SDS011;3708;42.632;23.378;2022-09-29T14:59:52;3.77;;;3.00;;
7334;SDS011;3708;42.632;23.378;2022-09-29T15:02:31;4.40;;;2.83;;
7334;SDS011;3708;42.632;23.378;2022-09-29T15:05:10;6.17;;;2.63;;
7334;SDS011;3708;42.632;23.378;2022-09-29T15:07:40;5.97;;;3.00;;
7334;SDS011;3708;42.632;23.378;2022-09-29T15:10:18;6.97;;;3.20;;
7334;SDS011;3708;42.632;23.378;2022-09-29T15:12:47;3.13;;;2.00;;
7334;SDS011;3708;42.632;23.378;2022-09-29T15:15:31;3.90;;;2.00;;
7334;SDS011;3708;42.632;23.378;2022-09-29T15:18:16;2.83;;;2.10;;
7334;SDS011;3708;42.632;23.378;2022-09-29T15:20:59;3.47;;;2.40;;
7334;SDS011;3708;42.632;23.378;2022-09-29T15:23:43;4.33;;;2.90;;
7334;SDS011;3708;42.632;23.378;2022-09-29T15:26:29;5.87;;;3.33;;
7334;SDS011;3708;42.632;23.378;2022-09-29T15:28:58;6.30;;;3.70;;
7334;SDS011;3708;42.632;23.378;2022-09-29T15:31:26;6.93;;;3.20;;
7334;SDS011;3708;42.632;23.378;2022-09-29T15:33:58;4.00;;;3.23;;
7334;SDS011;3708;42.632;23.378;2022-09-29T15:36:27;3.50;;;2.73;;
7334;SDS011;3708;42.632;23.378;2022-09-29T15:39:01;7.83;;;4.07;;
7334;SDS011;3708;42.632;23.378;2022-09-29T15:41:32;6.30;;;3.00;;
7334;SDS011;3708;42.632;23.378;2022-09-29T15:44:10;9.13;;;3.30;;
7334;SDS011;3708;42.632;23.378;2022-09-29T15:46:46;5.27;;;3.50;;
7334;SDS011;3708;42.632;23.378;2022-09-29T15:49:15;5.17;;;3.50;;
7334;SDS011;3708;42.632;23.378;2022-09-29T15:51:45;5.87;;;3.87;;
7334;SDS011;3708;42.632;23.378;2022-09-29T15:54:24;6.23;;;4.30;;
7334;SDS011;3708;42.632;23.378;2022-09-29T15:56:52;7.70;;;3.70;;
7334;SDS011;3708;42.632;23.378;2022-09-29T15:59:40;8.90;;;4.17;;
7334;SDS011;3708;42.632;23.378;2022-09-29T16:05:11;5.23;;;3.57;;
7334;SDS011;3708;42.632;23.378;2022-09-29T16:07:46;5.83;;;3.37;;
7334;SDS011;3708;42.632;23.378;2022-09-29T16:10:17;7.27;;;4.47;;
7334;SDS011;3708;42.632;23.378;2022-09-29T16:12:47;7.10;;;4.27;;
7334;SDS011;3708;42.632;23.378;2022-09-29T16:15:25;9.13;;;4.67;;
7334;SDS011;3708;42.632;23.378;2022-09-29T16:17:54;6.80;;;4.63;;
7334;SDS011;3708;42.632;23.378;2022-09-29T16:20:23;8.60;;;4.67;;
7334;SDS011;3708;42.632;23.378;2022-09-29T16:22:52;8.97;;;4.37;;
7334;SDS011;3708;42.632;23.378;2022-09-29T16:25:25;7.57;;;4.80;;
7334;SDS011;3708;42.632;23.378;2022-09-29T16:27:58;8.60;;;4.80;;
7334;SDS011;3708;42.632;23.378;2022-09-29T16:30:29;7.67;;;4.00;;
7334;SDS011;3708;42.632;23.378;2022-09-29T16:33:01;4.00;;;3.20;;